createdAt,value
2019-04-10T00:07:49.941Z,6.50
2019-04-10T00:17:55.739Z,6.50
2019-04-10T00:28:01.316Z,6.40
2019-04-10T00:38:07.182Z,6.50
2019-04-10T00:48:12.915Z,6.40
2019-04-10T00:58:18.373Z,6.40
2019-04-10T01:08:25.120Z,6.20
2019-04-10T01:18:31.051Z,6.00
2019-04-10T01:28:36.793Z,5.90
2019-04-10T01:38:42.407Z,6.00
2019-04-10T01:48:47.915Z,6.00
2019-04-10T01:58:53.750Z,5.90
2019-04-10T02:09:00.375Z,5.90
2019-04-10T02:19:08.161Z,5.80
2019-04-10T02:29:13.893Z,5.90
2019-04-10T02:39:27.839Z,6.00
2019-04-10T02:49:27.864Z,6.10
2019-04-10T02:59:35.047Z,6.20
2019-04-10T03:09:52.871Z,6.20
2019-04-10T03:20:07.939Z,5.90
2019-04-10T03:30:15.245Z,5.60
2019-04-10T03:40:21.658Z,5.40
2019-04-10T03:50:27.811Z,5.20
2019-04-10T04:00:34.248Z,5.00
2019-04-10T04:10:40.460Z,4.90
2019-04-10T04:20:47.563Z,4.80
2019-04-10T04:30:53.804Z,4.80
2019-04-10T04:41:00.384Z,4.80
2019-04-10T04:51:06.719Z,4.80
2019-04-10T05:01:12.708Z,4.90
2019-04-10T05:11:18.378Z,4.80
2019-04-10T05:21:23.974Z,5.20
2019-04-10T05:31:32.217Z,5.30
2019-04-10T05:41:37.854Z,5.50
2019-04-10T05:51:53.506Z,5.70
2019-04-10T06:01:59.176Z,5.90
2019-04-10T06:12:05.776Z,6.40
2019-04-10T06:22:12.771Z,6.70
2019-04-10T06:32:19.164Z,6.90
2019-04-10T06:42:24.751Z,7.10
2019-04-10T06:52:30.444Z,7.40
2019-04-10T07:02:37.095Z,7.50
2019-04-10T07:12:43.877Z,7.70
2019-04-10T07:22:49.827Z,7.80
2019-04-10T07:32:55.461Z,8.30
2019-04-10T07:43:04.576Z,8.40
2019-04-10T07:53:10.935Z,8.70
2019-04-10T08:03:43.754Z,9.00
2019-04-10T08:13:51.184Z,9.80
2019-04-10T08:24:07.995Z,10.10
2019-04-10T08:34:13.602Z,10.60
2019-04-10T08:44:20.062Z,10.80
2019-04-10T08:54:26.601Z,10.90
2019-04-10T09:04:33.634Z,11.20
2019-04-10T09:14:41.025Z,12.00
2019-04-10T09:24:48.868Z,12.30
2019-04-10T09:34:56.259Z,12.70
2019-04-10T09:45:10.160Z,13.10
2019-04-10T09:55:20.544Z,13.40
2019-04-10T10:05:29.041Z,13.50
2019-04-10T10:15:35.837Z,12.90
2019-04-10T10:25:49.041Z,12.80
2019-04-10T10:35:57.672Z,12.90
2019-04-10T10:46:04.085Z,12.70
2019-04-10T10:56:10.406Z,12.70
2019-04-10T11:06:17.749Z,12.80
2019-04-10T11:16:24.908Z,12.80
2019-04-10T11:26:32.015Z,12.60
2019-04-10T11:36:40.065Z,12.80
2019-04-10T11:46:46.506Z,13.20
2019-04-10T11:56:55.370Z,13.60
2019-04-10T12:07:02.109Z,13.90
2019-04-10T12:17:09.677Z,13.60
2019-04-10T12:27:17.391Z,13.80
2019-04-10T12:37:25.853Z,13.60
2019-04-10T12:47:34.627Z,14.80
2019-04-10T12:57:41.343Z,13.80
2019-04-10T13:07:48.280Z,13.60
2019-04-10T13:17:54.586Z,13.40
2019-04-10T13:28:01.319Z,13.10
2019-04-10T13:38:08.773Z,12.90
2019-04-10T13:48:16.432Z,12.40
2019-04-10T13:58:29.070Z,12.10
2019-04-10T14:08:57.276Z,12.00
2019-04-10T14:18:43.427Z,11.80
2019-04-10T14:28:51.290Z,11.80
2019-04-10T14:39:08.276Z,11.90
2019-04-10T14:49:07.013Z,12.10
2019-04-10T14:59:13.635Z,12.20
2019-04-10T15:09:25.651Z,12.50
2019-04-10T15:19:30.134Z,12.30
2019-04-10T15:29:37.156Z,12.20
2019-04-10T15:39:44.827Z,12.00
2019-04-10T15:49:51.642Z,11.80
2019-04-10T15:59:58.814Z,11.70
2019-04-10T16:10:25.594Z,11.50
2019-04-10T16:20:36.818Z,11.20
2019-04-10T16:30:44.021Z,11.00
2019-04-10T16:40:50.662Z,10.80
2019-04-10T16:50:59.692Z,10.70
2019-04-10T17:01:08.361Z,10.60
2019-04-10T17:11:15.322Z,10.60
2019-04-10T17:21:22.571Z,10.50
2019-04-10T17:31:30.707Z,10.00
2019-04-10T17:41:37.681Z,10.20
2019-04-10T17:51:45.866Z,10.10
2019-04-10T18:01:53.756Z,9.90
2019-04-10T18:12:01.884Z,9.70
2019-04-10T18:22:10.021Z,9.70
2019-04-10T18:32:17.928Z,9.60
2019-04-10T18:42:28.763Z,9.60
2019-04-10T18:52:37.285Z,9.60
2019-04-10T19:03:03.413Z,9.50
2019-04-10T19:13:12.927Z,9.50
2019-04-10T19:23:21.027Z,9.40
2019-04-10T19:33:29.312Z,9.40
2019-04-10T19:43:37.901Z,9.40
2019-04-10T19:53:45.814Z,9.30
2019-04-10T20:03:54.215Z,9.30
2019-04-10T20:14:04.033Z,9.20
2019-04-10T20:24:10.490Z,9.10
2019-04-10T20:34:16.471Z,9.00
2019-04-10T20:44:22.754Z,8.70
2019-04-10T20:54:29.035Z,8.60
2019-04-10T21:04:34.630Z,8.40
2019-04-10T21:14:40.600Z,8.40
2019-04-10T21:24:46.223Z,8.30
2019-04-10T21:34:51.950Z,8.10
2019-04-10T21:44:57.522Z,8.00
2019-04-10T21:55:04.441Z,7.90
2019-04-10T22:05:12.386Z,7.90
2019-04-10T22:15:33.104Z,7.80
2019-04-10T22:25:39.505Z,7.80
2019-04-10T22:35:46.211Z,7.70
2019-04-10T22:45:52.860Z,7.60
2019-04-10T22:55:58.580Z,7.60
2019-04-10T23:06:04.905Z,7.60
2019-04-10T23:16:14.148Z,7.50
2019-04-10T23:26:18.555Z,7.50
2019-04-10T23:36:24.684Z,7.40
2019-04-10T23:46:30.568Z,7.50
2019-04-10T23:56:36.075Z,7.40
